Time;durP1;ratioP1;P1;durP2;ratioP2;P2;SDS_P1;SDS_P2;PMS_P1;PMS_P2;Temp;Humidity;BMP_temperature;BMP_pressure;BME280_temperature;BME280_humidity;BME280_pressure;Samples;Min_cycle;Max_cycle;Signal;HPM_P1;HPM_P2
2023/04/30 00:00:08;;;;;;;8.30;6.23;;;;;;;;;;5089917;28;20188;-78
2023/04/30 00:02:33;;;;;;;6.67;5.97;;;;;;;;;;5092510;28;20196;-78
2023/04/30 00:04:58;;;;;;;9.20;6.23;;;;;;;;;;5081874;28;20181;-78
2023/04/30 00:07:24;;;;;;;7.40;6.10;;;;;;;;;;5090161;28;20176;-78
2023/04/30 00:09:50;;;;;;;7.37;6.23;;;;;;;;;;5089060;28;20174;-78
2023/04/30 00:12:15;;;;;;;6.33;5.73;;;;;;;;;;5079354;28;20180;-78
2023/04/30 00:14:40;;;;;;;6.33;5.83;;;;;;;;;;5090302;28;20189;-78
2023/04/30 00:17:05;;;;;;;6.83;6.10;;;;;;;;;;5104570;28;20183;-78
2023/04/30 00:19:30;;;;;;;7.40;5.93;;;;;;;;;;5093868;28;20184;-78
2023/04/30 00:21:56;;;;;;;6.63;6.00;;;;;;;;;;5082741;28;20192;-78
2023/04/30 00:24:21;;;;;;;5.50;5.00;;;;;;;;;;5086315;28;20183;-78
2023/04/30 00:26:46;;;;;;;7.23;5.30;;;;;;;;;;5092172;28;20171;-78
2023/04/30 00:29:11;;;;;;;6.07;5.17;;;;;;;;;;5105636;28;20237;-78
2023/04/30 00:31:37;;;;;;;6.63;5.77;;;;;;;;;;5092644;28;20253;-78
2023/04/30 00:34:02;;;;;;;6.33;5.73;;;;;;;;;;5093373;28;20213;-78
2023/04/30 00:36:27;;;;;;;5.93;5.33;;;;;;;;;;5100573;28;20190;-78
2023/04/30 00:38:52;;;;;;;6.90;5.50;;;;;;;;;;5090506;28;20177;-78
2023/04/30 00:41:18;;;;;;;8.37;5.77;;;;;;;;;;5092424;28;20225;-78
2023/04/30 00:43:45;;;;;;;6.77;6.07;;;;;;;;;;5083952;28;20201;-78
2023/04/30 00:46:11;;;;;;;5.57;5.03;;;;;;;;;;5082396;28;20210;-78
2023/04/30 00:48:36;;;;;;;7.00;6.23;;;;;;;;;;5089589;28;20203;-78
2023/04/30 00:51:02;;;;;;;6.47;5.87;;;;;;;;;;5081083;28;20286;-78
2023/04/30 00:53:28;;;;;;;8.20;5.90;;;;;;;;;;5082061;28;20208;-78
2023/04/30 00:55:53;;;;;;;6.43;5.77;;;;;;;;;;5086781;28;20184;-78
2023/04/30 00:58:18;;;;;;;5.93;5.33;;;;;;;;;;5087779;28;20240;-78
2023/04/30 01:00:45;;;;;;;7.47;5.67;;;;;;;;;;5081223;28;20186;-78
2023/04/30 01:03:12;;;;;;;7.30;6.00;;;;;;;;;;5092486;28;20192;-78
2023/04/30 01:05:37;;;;;;;7.97;7.17;;;;;;;;;;5084254;28;20174;-78
2023/04/30 01:08:02;;;;;;;8.03;6.10;;;;;;;;;;5088555;28;20172;-78
2023/04/30 01:10:31;;;;;;;7.27;6.53;;;;;;;;;;5085661;28;20290;-78
2023/04/30 01:13:01;;;;;;;7.23;6.47;;;;;;;;;;5087136;28;20202;-78
2023/04/30 01:15:35;;;;;;;7.87;5.80;;;;;;;;;;5074346;28;20176;-78
2023/04/30 01:18:11;;;;;;;8.47;6.60;;;;;;;;;;5087115;28;20179;-78
2023/04/30 01:20:40;;;;;;;8.33;6.67;;;;;;;;;;5082870;28;20190;-78
2023/04/30 01:23:24;;;;;;;8.17;6.67;;;;;;;;;;5087979;28;20183;-78
2023/04/30 01:25:52;;;;;;;6.20;5.37;;;;;;;;;;5089597;28;20188;-78
2023/04/30 01:28:20;;;;;;;6.87;5.87;;;;;;;;;;5096313;28;20267;-78
2023/04/30 01:30:46;;;;;;;6.70;6.00;;;;;;;;;;5092350;28;20213;-78
2023/04/30 01:33:11;;;;;;;7.13;6.10;;;;;;;;;;5079076;28;20183;-78
2023/04/30 01:35:37;;;;;;;7.80;7.00;;;;;;;;;;5090995;28;20186;-78
2023/04/30 01:38:31;;;;;;;6.70;6.00;;;;;;;;;;5090470;28;20176;-78
2023/04/30 01:40:59;;;;;;;7.83;7.03;;;;;;;;;;5029646;28;20240;-78
2023/04/30 01:43:43;;;;;;;8.97;7.60;;;;;;;;;;5089889;28;20183;-78
2023/04/30 01:46:17;;;;;;;7.50;6.30;;;;;;;;;;5082681;28;20180;-78
2023/04/30 01:48:51;;;;;;;9.20;6.83;;;;;;;;;;5081808;28;20190;-78
2023/04/30 01:51:23;;;;;;;8.27;6.17;;;;;;;;;;5086774;28;20200;-78
2023/04/30 01:53:48;;;;;;;8.00;7.17;;;;;;;;;;5085605;28;20393;-78
2023/04/30 01:56:34;;;;;;;7.50;6.70;;;;;;;;;;5082149;28;20199;-78
2023/04/30 01:59:00;;;;;;;8.80;7.33;;;;;;;;;;5092153;28;20231;-78
2023/04/30 02:01:26;;;;;;;7.23;6.30;;;;;;;;;;5086216;28;20190;-78
2023/04/30 02:03:52;;;;;;;8.50;6.50;;;;;;;;;;5085001;28;20198;-78
2023/04/30 02:06:17;;;;;;;10.10;7.17;;;;;;;;;;5082245;28;20182;-78
2023/04/30 02:08:42;;;;;;;8.27;7.13;;;;;;;;;;5082972;28;20198;-78
2023/04/30 02:11:07;;;;;;;7.43;6.50;;;;;;;;;;5094101;28;20212;-78
2023/04/30 02:13:32;;;;;;;9.27;7.67;;;;;;;;;;5090735;28;20194;-78
2023/04/30 02:15:58;;;;;;;8.77;7.87;;;;;;;;;;5088816;28;20200;-78
2023/04/30 02:18:23;;;;;;;8.57;7.60;;;;;;;;;;5108611;27;20186;-78
2023/04/30 02:20:48;;;;;;;10.47;8.13;;;;;;;;;;5095606;28;20188;-78
2023/04/30 02:23:14;;;;;;;8.30;6.80;;;;;;;;;;5086944;28;20200;-78
2023/04/30 02:25:40;;;;;;;8.57;7.77;;;;;;;;;;5088652;28;20182;-78
2023/04/30 02:28:05;;;;;;;8.23;6.40;;;;;;;;;;5088101;28;20225;-78
2023/04/30 02:30:30;;;;;;;9.23;7.50;;;;;;;;;;5087739;28;20202;-78
2023/04/30 02:32:55;;;;;;;8.53;7.10;;;;;;;;;;5090151;28;20273;-78
2023/04/30 02:35:21;;;;;;;10.77;8.27;;;;;;;;;;5096889;28;20199;-78
2023/04/30 02:37:46;;;;;;;8.93;7.80;;;;;;;;;;5096709;28;20209;-78
2023/04/30 02:40:11;;;;;;;9.80;7.80;;;;;;;;;;5091988;28;20270;-78
2023/04/30 02:42:36;;;;;;;8.80;7.43;;;;;;;;;;5088879;28;20180;-78
2023/04/30 02:45:02;;;;;;;10.00;8.00;;;;;;;;;;5095386;28;20295;-78
2023/04/30 02:47:27;;;;;;;9.23;7.50;;;;;;;;;;5082108;28;20243;-78
2023/04/30 02:49:52;;;;;;;10.73;7.30;;;;;;;;;;5090127;28;20172;-78
2023/04/30 02:52:17;;;;;;;10.97;8.80;;;;;;;;;;5086486;28;20190;-78
2023/04/30 02:54:42;;;;;;;12.00;7.37;;;;;;;;;;5090695;28;20218;-78
2023/04/30 02:57:08;;;;;;;10.70;8.67;;;;;;;;;;5094254;28;20206;-78
2023/04/30 02:59:33;;;;;;;9.73;8.57;;;;;;;;;;5095225;28;20220;-78
2023/04/30 03:01:58;;;;;;;10.23;8.53;;;;;;;;;;5091573;28;20197;-78
2023/04/30 03:04:23;;;;;;;9.60;8.33;;;;;;;;;;5084543;28;20172;-78
2023/04/30 03:06:48;;;;;;;9.77;8.60;;;;;;;;;;5093464;28;20181;-78
2023/04/30 03:09:14;;;;;;;9.23;7.83;;;;;;;;;;5087993;28;20202;-78
2023/04/30 03:11:39;;;;;;;8.27;7.40;;;;;;;;;;5090530;28;20256;-78
2023/04/30 03:14:04;;;;;;;11.20;7.93;;;;;;;;;;5085736;28;20174;-78
2023/04/30 03:16:30;;;;;;;10.73;8.53;;;;;;;;;;5087294;28;20170;-78
2023/04/30 03:18:55;;;;;;;10.63;8.67;;;;;;;;;;5090588;28;20182;-78
2023/04/30 03:21:20;;;;;;;9.57;8.37;;;;;;;;;;5088731;28;20248;-77
2023/04/30 03:23:45;;;;;;;11.00;8.77;;;;;;;;;;5093314;28;20229;-78
2023/04/30 03:26:11;;;;;;;10.23;8.67;;;;;;;;;;5107666;27;20177;-78
2023/04/30 03:28:36;;;;;;;9.37;8.33;;;;;;;;;;5091916;28;20232;-78
2023/04/30 03:31:04;;;;;;;12.30;8.77;;;;;;;;;;5083324;28;20280;-78
2023/04/30 03:33:29;;;;;;;10.73;8.53;;;;;;;;;;5084676;28;20177;-78
2023/04/30 03:35:54;;;;;;;12.23;9.50;;;;;;;;;;5092024;28;20274;-78
2023/04/30 03:38:20;;;;;;;9.47;8.43;;;;;;;;;;5084453;28;20206;-78
2023/04/30 03:40:45;;;;;;;13.33;8.60;;;;;;;;;;5089811;28;20191;-78
2023/04/30 03:43:11;;;;;;;10.30;8.50;;;;;;;;;;5087422;28;20186;-78
2023/04/30 03:45:36;;;;;;;11.93;8.97;;;;;;;;;;5088165;28;20187;-78
2023/04/30 03:48:02;;;;;;;11.03;8.23;;;;;;;;;;5085158;28;20186;-78
2023/04/30 03:50:27;;;;;;;10.97;9.13;;;;;;;;;;5086029;28;20226;-78
2023/04/30 03:52:52;;;;;;;10.87;8.40;;;;;;;;;;5084346;28;20235;-78
2023/04/30 03:55:17;;;;;;;11.73;8.33;;;;;;;;;;5090161;28;20191;-78
2023/04/30 03:57:43;;;;;;;9.97;8.47;;;;;;;;;;5084924;28;20226;-78
2023/04/30 04:00:09;;;;;;;12.23;9.10;;;;;;;;;;5108984;27;20210;-78
2023/04/30 04:02:35;;;;;;;12.53;8.93;;;;;;;;;;5086581;28;20193;-78
2023/04/30 04:05:00;;;;;;;11.63;9.80;;;;;;;;;;5088580;28;20263;-78
2023/04/30 04:07:25;;;;;;;11.93;8.87;;;;;;;;;;5087756;28;20175;-78
2023/04/30 04:09:50;;;;;;;8.97;8.07;;;;;;;;;;5090691;28;20232;-78
2023/04/30 04:12:15;;;;;;;12.17;9.93;;;;;;;;;;5085025;28;20215;-78
2023/04/30 04:14:41;;;;;;;10.50;9.33;;;;;;;;;;5090780;28;20178;-78
2023/04/30 04:17:06;;;;;;;10.20;8.87;;;;;;;;;;5089824;28;20174;-79
2023/04/30 04:19:32;;;;;;;9.70;8.70;;;;;;;;;;5087247;28;20179;-78
2023/04/30 04:21:57;;;;;;;11.80;10.07;;;;;;;;;;5087914;28;20236;-78
2023/04/30 04:24:25;;;;;;;11.27;10.07;;;;;;;;;;5095004;28;20177;-78
2023/04/30 04:26:50;;;;;;;11.63;10.20;;;;;;;;;;5085599;28;20178;-78
2023/04/30 04:29:16;;;;;;;10.80;8.90;;;;;;;;;;5078542;28;20218;-78
2023/04/30 04:31:41;;;;;;;12.80;9.67;;;;;;;;;;5097088;28;20201;-78
2023/04/30 04:34:07;;;;;;;12.10;9.03;;;;;;;;;;5087776;28;20171;-78
2023/04/30 04:36:33;;;;;;;10.20;9.03;;;;;;;;;;5101379;28;20189;-78
2023/04/30 04:39:01;;;;;;;13.50;9.03;;;;;;;;;;5086735;28;20240;-78
2023/04/30 04:41:29;;;;;;;12.70;9.00;;;;;;;;;;5086904;28;20180;-78
2023/04/30 04:43:55;;;;;;;13.77;9.97;;;;;;;;;;5087539;28;20201;-78
2023/04/30 04:46:21;;;;;;;11.83;10.03;;;;;;;;;;5095364;28;20200;-78
2023/04/30 04:48:46;;;;;;;10.67;9.57;;;;;;;;;;5090234;28;20186;-78
2023/04/30 04:51:11;;;;;;;11.83;9.33;;;;;;;;;;5088284;28;20204;-78
2023/04/30 04:53:37;;;;;;;11.57;9.93;;;;;;;;;;5082103;28;20169;-78
2023/04/30 04:56:02;;;;;;;12.57;10.20;;;;;;;;;;5088279;28;20174;-78
2023/04/30 04:58:28;;;;;;;10.73;8.90;;;;;;;;;;5088101;28;20208;-78
2023/04/30 05:00:53;;;;;;;12.60;10.83;;;;;;;;;;5082053;28;20182;-78
2023/04/30 05:03:19;;;;;;;11.37;10.13;;;;;;;;;;5084224;28;20255;-78
2023/04/30 05:05:45;;;;;;;13.87;10.23;;;;;;;;;;5085595;28;20187;-78
2023/04/30 05:08:10;;;;;;;14.60;10.97;;;;;;;;;;5084598;28;20181;-78
2023/04/30 05:10:35;;;;;;;14.40;10.20;;;;;;;;;;5087720;28;20280;-78
2023/04/30 05:13:00;;;;;;;15.70;11.10;;;;;;;;;;5083745;28;20182;-78
2023/04/30 05:15:25;;;;;;;13.37;11.23;;;;;;;;;;5087652;28;20176;-78
2023/04/30 05:17:51;;;;;;;12.17;10.47;;;;;;;;;;5087003;28;20234;-78
2023/04/30 05:20:16;;;;;;;13.80;10.70;;;;;;;;;;5077221;28;20186;-78
2023/04/30 05:22:41;;;;;;;13.77;10.60;;;;;;;;;;5089650;28;20205;-78
2023/04/30 05:25:06;;;;;;;12.93;9.87;;;;;;;;;;5092953;28;20211;-78
2023/04/30 05:27:32;;;;;;;13.23;9.87;;;;;;;;;;5092857;28;20224;-78
2023/04/30 05:29:57;;;;;;;15.00;10.03;;;;;;;;;;5081767;28;20177;-78
2023/04/30 05:32:22;;;;;;;15.63;9.63;;;;;;;;;;5092404;28;20184;-78
2023/04/30 05:34:48;;;;;;;12.03;10.40;;;;;;;;;;5080947;28;20184;-78
2023/04/30 05:37:16;;;;;;;12.93;10.43;;;;;;;;;;5092523;28;20235;-78
2023/04/30 05:39:41;;;;;;;15.63;11.83;;;;;;;;;;5084776;28;20177;-78
2023/04/30 05:42:06;;;;;;;17.07;12.43;;;;;;;;;;5094809;28;20189;-78
2023/04/30 05:44:32;;;;;;;18.83;13.17;;;;;;;;;;5080348;28;20180;-78
2023/04/30 05:46:57;;;;;;;14.73;10.90;;;;;;;;;;5087795;28;20186;-78
2023/04/30 05:49:22;;;;;;;13.60;10.47;;;;;;;;;;5080788;28;20313;-78
2023/04/30 05:51:47;;;;;;;11.07;9.80;;;;;;;;;;5084546;28;20212;-78
2023/04/30 05:54:12;;;;;;;14.67;11.47;;;;;;;;;;5098220;28;20249;-78
2023/04/30 05:56:38;;;;;;;12.43;10.70;;;;;;;;;;5076898;28;20182;-78
2023/04/30 05:59:03;;;;;;;12.90;11.50;;;;;;;;;;5086237;28;20174;-78
2023/04/30 06:01:28;;;;;;;12.93;10.83;;;;;;;;;;5081218;28;20173;-78
2023/04/30 06:03:54;;;;;;;12.50;11.03;;;;;;;;;;5084676;28;20218;-78
2023/04/30 06:06:19;;;;;;;13.57;11.87;;;;;;;;;;5084637;28;20189;-78
2023/04/30 06:08:44;;;;;;;12.97;11.17;;;;;;;;;;5085597;28;20184;-78
2023/04/30 06:11:10;;;;;;;13.57;10.20;;;;;;;;;;5082704;28;20294;-78
2023/04/30 06:13:35;;;;;;;12.10;10.90;;;;;;;;;;5088905;28;20188;-78
2023/04/30 06:16:01;;;;;;;11.93;9.80;;;;;;;;;;5088925;28;20169;-78
2023/04/30 06:18:26;;;;;;;11.93;10.33;;;;;;;;;;5093008;28;20178;-78
2023/04/30 06:20:51;;;;;;;11.70;9.40;;;;;;;;;;5086767;28;20273;-78
2023/04/30 06:23:17;;;;;;;13.50;9.60;;;;;;;;;;5096260;28;20265;-78
2023/04/30 06:25:42;;;;;;;12.10;10.20;;;;;;;;;;5082550;28;20182;-78
2023/04/30 06:28:08;;;;;;;13.60;11.27;;;;;;;;;;5086515;28;20280;-78
2023/04/30 06:30:34;;;;;;;15.10;11.07;;;;;;;;;;5095005;28;20268;-78
2023/04/30 06:32:59;;;;;;;11.73;10.60;;;;;;;;;;5084411;28;20189;-78
2023/04/30 06:35:24;;;;;;;11.90;10.40;;;;;;;;;;5078938;28;20265;-78
2023/04/30 06:37:50;;;;;;;12.87;10.07;;;;;;;;;;5087211;28;20186;-78
2023/04/30 06:40:15;;;;;;;15.20;12.37;;;;;;;;;;5084723;28;20170;-79
2023/04/30 06:42:40;;;;;;;12.83;11.00;;;;;;;;;;5078585;28;20191;-78
2023/04/30 06:45:06;;;;;;;13.10;10.17;;;;;;;;;;5083476;28;20174;-79
2023/04/30 06:47:35;;;;;;;12.73;10.73;;;;;;;;;;5077464;28;20178;-79
2023/04/30 06:50:00;;;;;;;11.60;10.40;;;;;;;;;;5078260;28;20178;-78
2023/04/30 06:52:26;;;;;;;12.00;10.13;;;;;;;;;;5086859;28;20183;-78
2023/04/30 06:54:51;;;;;;;12.87;11.57;;;;;;;;;;5086431;28;20245;-78
2023/04/30 06:57:16;;;;;;;14.37;11.90;;;;;;;;;;5085207;28;20185;-78
2023/04/30 06:59:41;;;;;;;13.90;10.63;;;;;;;;;;5093673;28;20180;-78
2023/04/30 07:02:07;;;;;;;12.43;9.73;;;;;;;;;;5082917;28;20210;-78
2023/04/30 07:04:32;;;;;;;14.97;10.67;;;;;;;;;;5087032;28;20205;-78
2023/04/30 07:06:59;;;;;;;12.87;9.77;;;;;;;;;;5086116;28;20176;-79
2023/04/30 07:09:24;;;;;;;12.07;10.87;;;;;;;;;;5089542;28;20327;-79
2023/04/30 07:11:50;;;;;;;12.47;10.93;;;;;;;;;;5084130;28;20270;-79
2023/04/30 07:14:15;;;;;;;10.93;6.40;;;;;;;;;;5094256;28;20185;-78
2023/04/30 07:16:40;;;;;;;13.73;11.00;;;;;;;;;;5087318;28;20184;-78
2023/04/30 07:19:05;;;;;;;11.93;10.43;;;;;;;;;;5084912;28;20257;-78
2023/04/30 07:21:31;;;;;;;12.57;10.80;;;;;;;;;;5078558;28;20236;-79
2023/04/30 07:23:56;;;;;;;13.47;10.63;;;;;;;;;;5093437;28;20191;-79
2023/04/30 07:26:24;;;;;;;12.97;10.73;;;;;;;;;;5083049;28;20284;-79
2023/04/30 07:28:49;;;;;;;12.03;10.83;;;;;;;;;;5089490;28;20292;-79
2023/04/30 07:31:15;;;;;;;11.80;9.30;;;;;;;;;;5086005;28;20272;-79
2023/04/30 07:33:41;;;;;;;10.93;9.70;;;;;;;;;;5095171;28;20284;-78
2023/04/30 07:36:06;;;;;;;11.83;10.10;;;;;;;;;;5087634;28;20259;-78
2023/04/30 07:38:31;;;;;;;14.10;10.20;;;;;;;;;;5085157;28;20264;-78
2023/04/30 07:40:57;;;;;;;11.53;9.63;;;;;;;;;;5090513;28;20290;-78
2023/04/30 07:43:22;;;;;;;11.57;10.40;;;;;;;;;;5076602;28;20262;-78
2023/04/30 07:45:48;;;;;;;12.63;10.67;;;;;;;;;;5083439;28;20181;-78
2023/04/30 07:48:14;;;;;;;11.30;10.10;;;;;;;;;;5087352;28;20188;-78
2023/04/30 07:50:39;;;;;;;12.77;10.60;;;;;;;;;;5083672;28;20194;-79
2023/04/30 07:53:08;;;;;;;11.03;9.53;;;;;;;;;;5083563;28;20195;-79
2023/04/30 07:55:33;;;;;;;11.13;9.80;;;;;;;;;;5089159;28;20169;-79
2023/04/30 07:57:58;;;;;;;11.27;8.87;;;;;;;;;;5087579;28;20541;-79
2023/04/30 08:00:25;;;;;;;11.37;10.17;;;;;;;;;;5082455;28;20179;-79
2023/04/30 08:02:50;;;;;;;10.00;9.07;;;;;;;;;;5083122;28;20196;-79
2023/04/30 08:05:15;;;;;;;9.83;8.83;;;;;;;;;;5087810;28;20183;-79
2023/04/30 08:07:40;;;;;;;10.10;8.83;;;;;;;;;;5084367;28;20225;-78
2023/04/30 08:10:06;;;;;;;10.87;9.77;;;;;;;;;;5100278;27;20187;-79
2023/04/30 08:12:34;;;;;;;11.40;10.20;;;;;;;;;;5093330;28;20170;-79
2023/04/30 08:15:03;;;;;;;10.73;9.63;;;;;;;;;;5079120;28;20200;-79
2023/04/30 08:17:29;;;;;;;9.57;8.60;;;;;;;;;;5084815;28;20198;-78
2023/04/30 08:19:54;;;;;;;10.03;8.40;;;;;;;;;;5087621;28;20171;-79
2023/04/30 08:22:19;;;;;;;9.37;8.00;;;;;;;;;;5108778;27;20185;-79
2023/04/30 08:24:44;;;;;;;9.80;8.80;;;;;;;;;;5083229;28;20184;-79
2023/04/30 08:27:10;;;;;;;10.03;8.63;;;;;;;;;;5094088;28;20202;-79
2023/04/30 08:29:35;;;;;;;7.07;6.40;;;;;;;;;;5088863;28;20224;-79
2023/04/30 08:32:02;;;;;;;8.47;6.93;;;;;;;;;;5092155;28;20218;-79
2023/04/30 08:34:27;;;;;;;10.60;7.60;;;;;;;;;;5098687;27;20184;-79
2023/04/30 08:36:53;;;;;;;8.23;7.43;;;;;;;;;;5095106;28;20201;-80
2023/04/30 08:39:18;;;;;;;10.80;6.80;;;;;;;;;;5095875;28;20325;-79
2023/04/30 08:41:45;;;;;;;8.33;6.53;;;;;;;;;;5096477;28;20179;-79
2023/04/30 08:44:11;;;;;;;7.80;5.90;;;;;;;;;;5077701;28;20232;-80
2023/04/30 08:46:38;;;;;;;8.03;6.40;;;;;;;;;;5086092;28;20186;-79
2023/04/30 08:49:03;;;;;;;7.50;6.07;;;;;;;;;;5090496;28;20183;-79
2023/04/30 08:51:30;;;;;;;6.07;5.33;;;;;;;;;;5087636;28;20203;-79
2023/04/30 08:53:56;;;;;;;7.17;5.90;;;;;;;;;;5087203;28;20175;-79
2023/04/30 08:56:21;;;;;;;6.60;6.00;;;;;;;;;;5083223;28;20180;-79
2023/04/30 08:58:47;;;;;;;6.93;6.23;;;;;;;;;;5084482;28;20177;-79
2023/04/30 09:01:12;;;;;;;5.63;5.13;;;;;;;;;;5077084;28;20281;-79
2023/04/30 09:03:38;;;;;;;6.17;5.57;;;;;;;;;;5085082;28;20212;-79
2023/04/30 09:06:03;;;;;;;6.23;5.73;;;;;;;;;;5082376;28;20198;-79
2023/04/30 09:08:54;;;;;;;5.77;5.13;;;;;;;;;;5090699;28;20225;-79
2023/04/30 09:11:21;;;;;;;5.00;4.50;;;;;;;;;;5082554;28;20220;-79
2023/04/30 09:13:46;;;;;;;5.23;4.37;;;;;;;;;;5086251;28;20183;-80
2023/04/30 09:16:12;;;;;;;4.83;4.37;;;;;;;;;;5086994;28;20172;-79
2023/04/30 09:18:38;;;;;;;5.00;4.50;;;;;;;;;;5090454;28;20187;-79
2023/04/30 09:21:06;;;;;;;5.77;4.67;;;;;;;;;;5081856;28;20182;-79
2023/04/30 09:23:31;;;;;;;5.10;4.43;;;;;;;;;;5082920;28;20181;-79
2023/04/30 09:25:56;;;;;;;5.90;5.03;;;;;;;;;;5082027;28;20190;-79
2023/04/30 09:28:24;;;;;;;5.97;5.37;;;;;;;;;;5084613;28;20237;-79
2023/04/30 09:30:49;;;;;;;7.07;5.30;;;;;;;;;;5078772;28;20284;-79
2023/04/30 09:33:15;;;;;;;5.60;5.10;;;;;;;;;;5081286;28;20256;-79
2023/04/30 09:35:43;;;;;;;6.20;4.93;;;;;;;;;;5084503;28;20175;-79
2023/04/30 09:38:44;;;;;;;5.13;4.57;;;;;;;;;;5077388;28;20217;-80
2023/04/30 09:41:26;;;;;;;6.63;5.97;;;;;;;;;;4999428;28;20223;-79
2023/04/30 09:43:52;;;;;;;6.30;5.27;;;;;;;;;;4994703;28;20203;-79
2023/04/30 09:46:20;;;;;;;6.17;4.90;;;;;;;;;;4983686;28;20188;-79
2023/04/30 09:48:46;;;;;;;6.03;5.40;;;;;;;;;;4998622;28;20247;-79
2023/04/30 09:51:11;;;;;;;7.27;5.20;;;;;;;;;;4982525;28;20295;-79
2023/04/30 09:53:37;;;;;;;6.00;5.40;;;;;;;;;;4979410;28;20191;-79
2023/04/30 09:56:05;;;;;;;6.47;5.60;;;;;;;;;;4997346;28;20221;-79
2023/04/30 09:58:34;;;;;;;5.60;5.10;;;;;;;;;;4997398;28;20186;-79
2023/04/30 10:01:01;;;;;;;5.63;5.10;;;;;;;;;;4977019;28;20187;-79
2023/04/30 10:03:26;;;;;;;5.40;4.90;;;;;;;;;;4983541;28;20208;-79
2023/04/30 10:05:52;;;;;;;6.40;5.10;;;;;;;;;;4997020;28;20196;-79
2023/04/30 10:08:27;;;;;;;7.10;5.17;;;;;;;;;;4998783;28;20191;-80
2023/04/30 10:11:05;;;;;;;6.93;4.70;;;;;;;;;;4996085;28;20207;-79
2023/04/30 10:13:34;;;;;;;5.60;5.03;;;;;;;;;;4995119;28;20192;-80
2023/04/30 10:16:02;;;;;;;7.13;5.57;;;;;;;;;;5065507;28;20273;-79
2023/04/30 10:18:27;;;;;;;4.77;4.37;;;;;;;;;;5072852;28;20185;-79
2023/04/30 10:20:53;;;;;;;5.60;5.10;;;;;;;;;;5083237;28;20179;-79
2023/04/30 10:23:20;;;;;;;4.50;4.10;;;;;;;;;;5081857;28;20174;-79
2023/04/30 10:25:46;;;;;;;4.53;4.13;;;;;;;;;;5079455;28;20243;-79
2023/04/30 10:28:11;;;;;;;4.83;4.33;;;;;;;;;;5086506;28;20222;-80
2023/04/30 10:30:37;;;;;;;5.90;4.50;;;;;;;;;;5085449;28;20246;-79
2023/04/30 10:33:05;;;;;;;6.10;4.60;;;;;;;;;;5085700;28;20284;-80
2023/04/30 10:35:34;;;;;;;4.30;3.87;;;;;;;;;;5084322;28;20189;-79
2023/04/30 10:38:20;;;;;;;4.50;4.10;;;;;;;;;;5086232;28;20177;-79
2023/04/30 10:40:46;;;;;;;4.10;3.80;;;;;;;;;;5084057;28;20182;-79
2023/04/30 10:43:12;;;;;;;4.57;3.77;;;;;;;;;;5092227;28;20182;-80
2023/04/30 10:45:40;;;;;;;6.27;4.03;;;;;;;;;;5086124;28;20193;-79
2023/04/30 10:48:05;;;;;;;4.33;3.93;;;;;;;;;;5086221;28;20190;-79
2023/04/30 10:50:31;;;;;;;4.70;4.27;;;;;;;;;;5080451;28;20228;-78
2023/04/30 10:53:03;;;;;;;4.80;4.40;;;;;;;;;;5084603;28;20186;-78
2023/04/30 10:55:29;;;;;;;4.40;4.00;;;;;;;;;;5089992;28;20262;-78
2023/04/30 10:57:54;;;;;;;4.73;4.03;;;;;;;;;;5088585;28;20213;-78
2023/04/30 11:00:23;;;;;;;3.97;3.67;;;;;;;;;;5088749;28;20266;-78
2023/04/30 11:02:48;;;;;;;5.30;4.80;;;;;;;;;;5098597;27;20195;-78
2023/04/30 11:05:17;;;;;;;4.10;3.70;;;;;;;;;;5088302;28;20230;-78
2023/04/30 11:07:47;;;;;;;4.40;4.00;;;;;;;;;;5082981;28;20181;-78
2023/04/30 11:10:13;;;;;;;5.20;4.57;;;;;;;;;;5089207;28;20177;-78
2023/04/30 11:12:40;;;;;;;5.30;4.40;;;;;;;;;;5080613;28;20206;-78
2023/04/30 11:15:11;;;;;;;4.30;3.83;;;;;;;;;;5087136;28;20265;-78
2023/04/30 11:17:36;;;;;;;5.13;4.30;;;;;;;;;;5096827;27;20184;-78
2023/04/30 11:20:03;;;;;;;11.27;4.87;;;;;;;;;;5075542;28;20181;-78
2023/04/30 11:22:46;;;;;;;4.30;3.90;;;;;;;;;;5088884;28;20191;-78
2023/04/30 11:25:12;;;;;;;4.57;4.10;;;;;;;;;;5086066;28;20177;-78
2023/04/30 11:27:41;;;;;;;4.63;4.10;;;;;;;;;;5089640;28;20227;-78
2023/04/30 11:30:14;;;;;;;6.23;4.10;;;;;;;;;;5090861;28;20179;-78
2023/04/30 11:32:40;;;;;;;5.60;4.00;;;;;;;;;;5087715;28;20175;-77
2023/04/30 11:35:06;;;;;;;4.53;4.13;;;;;;;;;;5087826;28;20228;-78
2023/04/30 11:37:32;;;;;;;3.73;3.43;;;;;;;;;;5088539;28;20171;-78
2023/04/30 11:40:02;;;;;;;4.47;3.90;;;;;;;;;;5088043;28;20192;-77
2023/04/30 11:42:33;;;;;;;6.13;3.60;;;;;;;;;;5092099;28;20178;-77
2023/04/30 11:45:02;;;;;;;4.20;3.87;;;;;;;;;;5084889;28;20202;-78
2023/04/30 11:47:37;;;;;;;4.77;4.07;;;;;;;;;;5084753;28;20256;-78
2023/04/30 11:50:02;;;;;;;3.30;3.00;;;;;;;;;;5084598;28;20179;-78
2023/04/30 11:52:27;;;;;;;3.67;3.37;;;;;;;;;;5081813;28;20220;-78
2023/04/30 11:54:53;;;;;;;4.87;4.30;;;;;;;;;;5089336;28;20217;-79
2023/04/30 11:57:19;;;;;;;4.87;4.23;;;;;;;;;;5092660;28;20170;-78
2023/04/30 11:59:44;;;;;;;5.10;4.30;;;;;;;;;;5082544;28;20189;-77
2023/04/30 12:02:13;;;;;;;4.60;4.20;;;;;;;;;;5086679;28;20272;-78
2023/04/30 12:04:38;;;;;;;4.27;3.80;;;;;;;;;;5086680;28;20182;-79
2023/04/30 12:07:06;;;;;;;4.83;4.40;;;;;;;;;;5086134;28;20173;-78
2023/04/30 12:09:31;;;;;;;4.23;3.83;;;;;;;;;;5085978;28;20172;-78
2023/04/30 12:11:57;;;;;;;4.73;4.33;;;;;;;;;;5087328;28;20209;-79
2023/04/30 12:14:23;;;;;;;4.37;3.97;;;;;;;;;;5075835;28;20178;-79
2023/04/30 12:16:49;;;;;;;6.83;4.10;;;;;;;;;;5080656;28;20195;-78
2023/04/30 12:19:18;;;;;;;4.90;4.40;;;;;;;;;;5079785;28;20205;-78
2023/04/30 12:21:45;;;;;;;5.13;4.63;;;;;;;;;;5084230;28;20186;-78
2023/04/30 12:24:14;;;;;;;4.50;4.03;;;;;;;;;;5080813;28;20216;-79
2023/04/30 12:26:40;;;;;;;7.73;3.90;;;;;;;;;;5093199;28;20171;-79
2023/04/30 12:29:10;;;;;;;5.43;4.00;;;;;;;;;;5085798;28;20220;-78
2023/04/30 12:31:38;;;;;;;4.40;4.00;;;;;;;;;;5090511;28;20207;-79
2023/04/30 12:34:04;;;;;;;4.20;3.47;;;;;;;;;;5084394;28;20187;-78
2023/04/30 12:36:31;;;;;;;3.67;3.30;;;;;;;;;;5082297;28;20251;-79
2023/04/30 12:39:07;;;;;;;3.23;2.80;;;;;;;;;;5083278;28;20181;-78
2023/04/30 12:41:46;;;;;;;5.10;4.30;;;;;;;;;;5079896;28;20274;-79
2023/04/30 12:44:14;;;;;;;5.20;4.03;;;;;;;;;;5084295;28;20198;-79
2023/04/30 12:46:39;;;;;;;4.67;4.27;;;;;;;;;;5082062;28;20187;-79
2023/04/30 12:49:05;;;;;;;6.10;4.40;;;;;;;;;;5096690;28;20189;-79
2023/04/30 12:51:33;;;;;;;5.57;4.17;;;;;;;;;;5091598;28;20212;-79
2023/04/30 12:53:58;;;;;;;4.80;4.40;;;;;;;;;;5091188;28;20176;-79
2023/04/30 12:56:23;;;;;;;3.90;3.60;;;;;;;;;;5083231;28;20187;-79
2023/04/30 12:58:49;;;;;;;4.57;4.17;;;;;;;;;;5078814;28;20245;-79
2023/04/30 13:01:19;;;;;;;6.60;3.77;;;;;;;;;;5078344;28;20177;-79
2023/04/30 13:03:45;;;;;;;4.90;4.03;;;;;;;;;;5080160;28;20204;-79
2023/04/30 13:06:10;;;;;;;4.40;4.00;;;;;;;;;;5086020;28;20284;-79
2023/04/30 13:08:35;;;;;;;4.60;4.20;;;;;;;;;;5076953;28;20177;-80
2023/04/30 13:11:01;;;;;;;5.00;4.20;;;;;;;;;;5095788;28;20202;-79
2023/04/30 13:13:26;;;;;;;3.90;3.57;;;;;;;;;;5088935;28;20175;-79
2023/04/30 13:15:51;;;;;;;4.37;3.97;;;;;;;;;;5090217;28;20217;-79
2023/04/30 13:18:16;;;;;;;3.40;3.10;;;;;;;;;;5084360;28;20176;-80
2023/04/30 13:20:45;;;;;;;4.43;3.43;;;;;;;;;;5077455;28;20242;-80
2023/04/30 13:23:13;;;;;;;4.10;3.70;;;;;;;;;;5087905;28;20187;-79
2023/04/30 13:25:39;;;;;;;5.03;4.40;;;;;;;;;;5080540;28;20179;-79
2023/04/30 13:28:04;;;;;;;4.17;3.13;;;;;;;;;;5080655;28;20235;-79
2023/04/30 13:30:29;;;;;;;4.43;4.03;;;;;;;;;;5080927;28;20217;-79
2023/04/30 13:32:55;;;;;;;4.33;3.93;;;;;;;;;;5090504;28;20180;-79
2023/04/30 13:35:21;;;;;;;3.73;3.43;;;;;;;;;;5082664;28;20241;-79
2023/04/30 13:37:48;;;;;;;6.67;4.10;;;;;;;;;;5085329;28;20210;-79
2023/04/30 13:40:14;;;;;;;5.30;4.90;;;;;;;;;;5084469;28;20187;-80
2023/04/30 13:42:40;;;;;;;5.10;4.13;;;;;;;;;;5080701;28;20174;-79
2023/04/30 13:45:05;;;;;;;4.07;3.77;;;;;;;;;;5083151;28;20180;-79
2023/04/30 13:47:31;;;;;;;4.93;4.40;;;;;;;;;;5084310;28;20185;-79
2023/04/30 13:49:56;;;;;;;5.07;4.23;;;;;;;;;;5080785;28;20242;-79
2023/04/30 13:52:22;;;;;;;7.57;3.80;;;;;;;;;;5085169;28;20252;-79
2023/04/30 13:54:47;;;;;;;4.50;4.10;;;;;;;;;;5085338;28;20169;-79
2023/04/30 13:57:12;;;;;;;4.10;3.80;;;;;;;;;;5083478;28;20185;-79
2023/04/30 13:59:37;;;;;;;3.70;3.23;;;;;;;;;;5082124;28;20166;-79
2023/04/30 14:02:02;;;;;;;4.67;4.27;;;;;;;;;;5085120;28;20210;-79
2023/04/30 14:04:29;;;;;;;5.57;4.00;;;;;;;;;;5080886;28;20203;-79
2023/04/30 14:06:55;;;;;;;4.10;3.70;;;;;;;;;;5079334;28;20190;-80
2023/04/30 14:09:21;;;;;;;4.13;3.83;;;;;;;;;;5094697;28;20178;-79
2023/04/30 14:11:46;;;;;;;3.83;3.53;;;;;;;;;;5099017;28;20210;-79
2023/04/30 14:14:11;;;;;;;4.10;3.70;;;;;;;;;;5081932;28;20202;-79
2023/04/30 14:16:37;;;;;;;4.30;3.70;;;;;;;;;;5083963;28;20200;-79
2023/04/30 14:19:02;;;;;;;4.27;3.93;;;;;;;;;;5089477;28;20189;-79
2023/04/30 14:21:28;;;;;;;3.73;3.43;;;;;;;;;;5085643;28;20190;-79
2023/04/30 14:23:54;;;;;;;4.23;3.87;;;;;;;;;;5091076;28;20522;-79
2023/04/30 14:26:20;;;;;;;3.43;3.13;;;;;;;;;;5082569;28;20189;-79
2023/04/30 14:28:46;;;;;;;3.73;3.40;;;;;;;;;;5079105;28;20232;-80
2023/04/30 14:31:11;;;;;;;4.33;3.53;;;;;;;;;;5073158;28;20207;-74